sensor_id;sensor_type;location;lat;lon;timestamp;P1;durP1;ratioP1;P2;durP2;ratioP2
9789;SDS011;4934;50.852;8.098;2022-12-07T00:01:35;29.65;;;13.05;;
9789;SDS011;4934;50.852;8.098;2022-12-07T00:04:06;34.08;;;14.27;;
9789;SDS011;4934;50.852;8.098;2022-12-07T00:06:34;32.10;;;14.65;;
9789;SDS011;4934;50.852;8.098;2022-12-07T00:09:02;32.50;;;13.48;;
9789;SDS011;4934;50.852;8.098;2022-12-07T00:11:28;28.88;;;13.27;;
9789;SDS011;4934;50.852;8.098;2022-12-07T00:13:55;37.67;;;14.60;;
9789;SDS011;4934;50.852;8.098;2022-12-07T00:16:26;33.60;;;13.43;;
9789;SDS011;4934;50.852;8.098;2022-12-07T00:18:53;34.83;;;14.13;;
9789;SDS011;4934;50.852;8.098;2022-12-07T00:21:23;33.30;;;13.95;;
9789;SDS011;4934;50.852;8.098;2022-12-07T00:23:50;33.22;;;14.32;;
9789;SDS011;4934;50.852;8.098;2022-12-07T00:26:18;32.72;;;15.20;;
9789;SDS011;4934;50.852;8.098;2022-12-07T00:28:45;36.80;;;15.20;;
9789;SDS011;4934;50.852;8.098;2022-12-07T00:31:12;35.88;;;15.00;;
9789;SDS011;4934;50.852;8.098;2022-12-07T00:33:38;33.78;;;14.50;;
9789;SDS011;4934;50.852;8.098;2022-12-07T00:36:09;33.20;;;14.23;;
9789;SDS011;4934;50.852;8.098;2022-12-07T00:38:36;35.85;;;15.00;;
9789;SDS011;4934;50.852;8.098;2022-12-07T00:41:07;30.13;;;13.13;;
9789;SDS011;4934;50.852;8.098;2022-12-07T00:43:37;30.20;;;12.80;;
9789;SDS011;4934;50.852;8.098;2022-12-07T00:46:04;33.20;;;14.23;;
9789;SDS011;4934;50.852;8.098;2022-12-07T00:48:29;29.73;;;12.65;;
9789;SDS011;4934;50.852;8.098;2022-12-07T00:50:55;27.95;;;12.32;;
9789;SDS011;4934;50.852;8.098;2022-12-07T00:53:21;31.38;;;14.63;;
9789;SDS011;4934;50.852;8.098;2022-12-07T00:55:47;30.98;;;13.68;;
9789;SDS011;4934;50.852;8.098;2022-12-07T00:58:12;31.30;;;13.52;;
9789;SDS011;4934;50.852;8.098;2022-12-07T01:00:39;29.83;;;13.45;;
9789;SDS011;4934;50.852;8.098;2022-12-07T01:03:06;32.75;;;13.63;;
9789;SDS011;4934;50.852;8.098;2022-12-07T01:05:34;31.38;;;13.48;;
9789;SDS011;4934;50.852;8.098;2022-12-07T01:08:00;34.05;;;13.80;;
9789;SDS011;4934;50.852;8.098;2022-12-07T01:10:26;33.25;;;14.05;;
9789;SDS011;4934;50.852;8.098;2022-12-07T01:12:52;34.15;;;13.90;;
9789;SDS011;4934;50.852;8.098;2022-12-07T01:15:17;31.27;;;14.18;;
9789;SDS011;4934;50.852;8.098;2022-12-07T01:17:43;36.75;;;15.02;;
9789;SDS011;4934;50.852;8.098;2022-12-07T01:20:09;28.15;;;12.18;;
9789;SDS011;4934;50.852;8.098;2022-12-07T01:22:38;30.60;;;12.90;;
9789;SDS011;4934;50.852;8.098;2022-12-07T01:25:06;32.90;;;13.65;;
9789;SDS011;4934;50.852;8.098;2022-12-07T01:27:33;27.95;;;12.20;;
9789;SDS011;4934;50.852;8.098;2022-12-07T01:30:00;31.42;;;13.55;;
9789;SDS011;4934;50.852;8.098;2022-12-07T01:32:26;29.42;;;12.65;;
9789;SDS011;4934;50.852;8.098;2022-12-07T01:34:52;29.13;;;13.00;;
9789;SDS011;4934;50.852;8.098;2022-12-07T01:37:17;33.08;;;13.40;;
9789;SDS011;4934;50.852;8.098;2022-12-07T01:39:43;27.23;;;12.98;;
9789;SDS011;4934;50.852;8.098;2022-12-07T01:42:12;39.08;;;14.35;;
9789;SDS011;4934;50.852;8.098;2022-12-07T01:47:41;38.38;;;13.88;;
9789;SDS011;4934;50.852;8.098;2022-12-07T01:50:08;28.92;;;12.45;;
9789;SDS011;4934;50.852;8.098;2022-12-07T01:52:34;32.38;;;12.48;;
9789;SDS011;4934;50.852;8.098;2022-12-07T01:55:07;32.78;;;14.32;;
9789;SDS011;4934;50.852;8.098;2022-12-07T01:57:36;30.98;;;13.48;;
9789;SDS011;4934;50.852;8.098;2022-12-07T02:00:06;34.95;;;13.88;;
9789;SDS011;4934;50.852;8.098;2022-12-07T02:02:33;32.53;;;13.85;;
9789;SDS011;4934;50.852;8.098;2022-12-07T02:05:04;34.92;;;13.63;;
9789;SDS011;4934;50.852;8.098;2022-12-07T02:07:31;31.90;;;13.40;;
9789;SDS011;4934;50.852;8.098;2022-12-07T02:10:16;36.78;;;13.75;;
9789;SDS011;4934;50.852;8.098;2022-12-07T02:12:47;34.85;;;13.05;;
9789;SDS011;4934;50.852;8.098;2022-12-07T02:15:16;31.70;;;13.15;;
9789;SDS011;4934;50.852;8.098;2022-12-07T02:17:48;41.40;;;15.00;;
9789;SDS011;4934;50.852;8.098;2022-12-07T02:20:18;31.10;;;13.27;;
9789;SDS011;4934;50.852;8.098;2022-12-07T02:28:07;29.92;;;13.60;;
9789;SDS011;4934;50.852;8.098;2022-12-07T02:31:14;27.55;;;11.40;;
9789;SDS011;4934;50.852;8.098;2022-12-07T02:33:47;30.42;;;11.32;;
9789;SDS011;4934;50.852;8.098;2022-12-07T02:36:25;30.30;;;11.88;;
9789;SDS011;4934;50.852;8.098;2022-12-07T02:39:15;26.00;;;11.13;;
9789;SDS011;4934;50.852;8.098;2022-12-07T02:41:46;27.33;;;11.63;;
9789;SDS011;4934;50.852;8.098;2022-12-07T02:44:26;25.58;;;10.85;;
9789;SDS011;4934;50.852;8.098;2022-12-07T02:46:54;24.13;;;11.18;;
9789;SDS011;4934;50.852;8.098;2022-12-07T02:49:26;26.73;;;10.32;;
9789;SDS011;4934;50.852;8.098;2022-12-07T02:51:53;26.50;;;10.88;;
9789;SDS011;4934;50.852;8.098;2022-12-07T02:54:20;26.15;;;10.88;;
9789;SDS011;4934;50.852;8.098;2022-12-07T02:56:50;26.00;;;11.02;;
9789;SDS011;4934;50.852;8.098;2022-12-07T02:59:29;26.55;;;10.77;;
9789;SDS011;4934;50.852;8.098;2022-12-07T03:07:54;30.05;;;11.10;;
9789;SDS011;4934;50.852;8.098;2022-12-07T03:16:18;28.98;;;12.73;;
9789;SDS011;4934;50.852;8.098;2022-12-07T03:21:36;31.05;;;12.00;;
9789;SDS011;4934;50.852;8.098;2022-12-07T03:24:06;29.83;;;12.80;;
9789;SDS011;4934;50.852;8.098;2022-12-07T03:26:38;32.30;;;13.82;;
9789;SDS011;4934;50.852;8.098;2022-12-07T03:29:27;30.85;;;12.57;;
9789;SDS011;4934;50.852;8.098;2022-12-07T03:31:59;33.60;;;13.70;;
9789;SDS011;4934;50.852;8.098;2022-12-07T03:34:53;33.90;;;13.93;;
9789;SDS011;4934;50.852;8.098;2022-12-07T03:37:51;34.63;;;13.68;;
9789;SDS011;4934;50.852;8.098;2022-12-07T03:40:34;36.00;;;13.73;;
9789;SDS011;4934;50.852;8.098;2022-12-07T03:43:05;36.25;;;14.25;;
9789;SDS011;4934;50.852;8.098;2022-12-07T03:45:37;33.85;;;13.20;;
9789;SDS011;4934;50.852;8.098;2022-12-07T03:50:54;34.20;;;14.23;;
9789;SDS011;4934;50.852;8.098;2022-12-07T03:53:34;36.63;;;12.77;;
9789;SDS011;4934;50.852;8.098;2022-12-07T03:56:04;36.17;;;14.43;;
9789;SDS011;4934;50.852;8.098;2022-12-07T03:58:31;32.15;;;12.82;;
9789;SDS011;4934;50.852;8.098;2022-12-07T04:00:58;33.42;;;13.73;;
9789;SDS011;4934;50.852;8.098;2022-12-07T04:03:24;34.30;;;13.98;;
9789;SDS011;4934;50.852;8.098;2022-12-07T04:05:49;35.80;;;14.50;;
9789;SDS011;4934;50.852;8.098;2022-12-07T04:08:15;34.38;;;14.07;;
9789;SDS011;4934;50.852;8.098;2022-12-07T04:10:41;36.58;;;14.93;;
9789;SDS011;4934;50.852;8.098;2022-12-07T04:13:06;42.22;;;14.70;;
9789;SDS011;4934;50.852;8.098;2022-12-07T04:15:32;39.15;;;14.98;;
9789;SDS011;4934;50.852;8.098;2022-12-07T04:17:57;41.13;;;16.25;;
9789;SDS011;4934;50.852;8.098;2022-12-07T04:20:23;47.85;;;16.08;;
9789;SDS011;4934;50.852;8.098;2022-12-07T04:22:49;40.75;;;15.30;;
9789;SDS011;4934;50.852;8.098;2022-12-07T04:25:14;40.00;;;15.75;;
9789;SDS011;4934;50.852;8.098;2022-12-07T04:27:40;38.10;;;15.40;;
9789;SDS011;4934;50.852;8.098;2022-12-07T04:30:07;36.70;;;14.85;;
9789;SDS011;4934;50.852;8.098;2022-12-07T04:32:33;38.33;;;15.65;;
9789;SDS011;4934;50.852;8.098;2022-12-07T04:34:58;36.15;;;13.88;;
9789;SDS011;4934;50.852;8.098;2022-12-07T04:37:25;36.05;;;16.10;;
9789;SDS011;4934;50.852;8.098;2022-12-07T04:39:57;45.67;;;16.30;;
9789;SDS011;4934;50.852;8.098;2022-12-07T04:42:22;39.50;;;15.27;;
9789;SDS011;4934;50.852;8.098;2022-12-07T04:44:51;39.10;;;15.23;;
9789;SDS011;4934;50.852;8.098;2022-12-07T04:47:18;33.03;;;14.90;;
9789;SDS011;4934;50.852;8.098;2022-12-07T04:49:59;36.45;;;14.30;;
9789;SDS011;4934;50.852;8.098;2022-12-07T04:52:25;44.80;;;16.42;;
9789;SDS011;4934;50.852;8.098;2022-12-07T04:54:50;32.70;;;14.02;;
9789;SDS011;4934;50.852;8.098;2022-12-07T04:57:17;43.72;;;14.48;;
9789;SDS011;4934;50.852;8.098;2022-12-07T04:59:43;36.65;;;15.05;;
9789;SDS011;4934;50.852;8.098;2022-12-07T05:02:09;42.88;;;16.45;;
9789;SDS011;4934;50.852;8.098;2022-12-07T05:04:35;39.33;;;15.45;;
9789;SDS011;4934;50.852;8.098;2022-12-07T05:07:00;43.42;;;16.10;;
9789;SDS011;4934;50.852;8.098;2022-12-07T05:09:26;42.78;;;15.48;;
9789;SDS011;4934;50.852;8.098;2022-12-07T05:11:51;39.80;;;15.73;;
9789;SDS011;4934;50.852;8.098;2022-12-07T05:14:19;41.67;;;15.70;;
9789;SDS011;4934;50.852;8.098;2022-12-07T05:16:46;36.03;;;14.30;;
9789;SDS011;4934;50.852;8.098;2022-12-07T05:19:13;43.30;;;16.77;;
9789;SDS011;4934;50.852;8.098;2022-12-07T05:21:39;38.47;;;15.10;;
9789;SDS011;4934;50.852;8.098;2022-12-07T05:24:06;22.83;;;8.73;;
9789;SDS011;4934;50.852;8.098;2022-12-07T05:26:33;24.80;;;9.80;;
9789;SDS011;4934;50.852;8.098;2022-12-07T05:29:03;24.98;;;11.65;;
9789;SDS011;4934;50.852;8.098;2022-12-07T05:31:44;25.77;;;10.57;;
9789;SDS011;4934;50.852;8.098;2022-12-07T05:34:11;27.58;;;9.93;;
9789;SDS011;4934;50.852;8.098;2022-12-07T05:36:37;24.60;;;9.38;;
9789;SDS011;4934;50.852;8.098;2022-12-07T05:39:02;26.08;;;8.20;;
9789;SDS011;4934;50.852;8.098;2022-12-07T05:41:28;22.88;;;9.88;;
9789;SDS011;4934;50.852;8.098;2022-12-07T05:44:12;19.67;;;8.50;;
9789;SDS011;4934;50.852;8.098;2022-12-07T05:46:38;20.13;;;8.48;;
9789;SDS011;4934;50.852;8.098;2022-12-07T05:49:04;17.83;;;7.93;;
9789;SDS011;4934;50.852;8.098;2022-12-07T05:51:29;19.17;;;8.32;;
9789;SDS011;4934;50.852;8.098;2022-12-07T05:53:55;20.15;;;8.40;;
9789;SDS011;4934;50.852;8.098;2022-12-07T05:56:21;16.25;;;7.47;;
9789;SDS011;4934;50.852;8.098;2022-12-07T05:58:47;14.35;;;6.68;;
9789;SDS011;4934;50.852;8.098;2022-12-07T06:01:31;16.17;;;7.28;;
9789;SDS011;4934;50.852;8.098;2022-12-07T06:03:57;17.83;;;7.15;;
9789;SDS011;4934;50.852;8.098;2022-12-07T06:06:23;20.85;;;8.80;;
9789;SDS011;4934;50.852;8.098;2022-12-07T06:08:48;17.63;;;7.03;;
9789;SDS011;4934;50.852;8.098;2022-12-07T06:11:14;16.00;;;7.25;;
9789;SDS011;4934;50.852;8.098;2022-12-07T06:13:58;22.48;;;7.50;;
9789;SDS011;4934;50.852;8.098;2022-12-07T06:16:23;21.85;;;7.85;;
9789;SDS011;4934;50.852;8.098;2022-12-07T06:18:49;14.90;;;6.75;;
9789;SDS011;4934;50.852;8.098;2022-12-07T06:21:15;23.35;;;8.18;;
9789;SDS011;4934;50.852;8.098;2022-12-07T06:23:40;18.60;;;7.25;;
9789;SDS011;4934;50.852;8.098;2022-12-07T06:26:06;17.40;;;7.50;;
9789;SDS011;4934;50.852;8.098;2022-12-07T06:28:32;18.55;;;7.10;;
9789;SDS011;4934;50.852;8.098;2022-12-07T06:30:58;25.52;;;9.25;;
9789;SDS011;4934;50.852;8.098;2022-12-07T06:33:24;23.55;;;8.25;;
9789;SDS011;4934;50.852;8.098;2022-12-07T06:35:51;20.20;;;8.45;;
9789;SDS011;4934;50.852;8.098;2022-12-07T06:38:16;30.00;;;9.93;;
9789;SDS011;4934;50.852;8.098;2022-12-07T06:40:42;30.00;;;10.98;;
9789;SDS011;4934;50.852;8.098;2022-12-07T06:43:08;26.38;;;9.82;;
9789;SDS011;4934;50.852;8.098;2022-12-07T06:45:33;24.75;;;9.50;;
9789;SDS011;4934;50.852;8.098;2022-12-07T06:47:59;22.55;;;9.00;;
9789;SDS011;4934;50.852;8.098;2022-12-07T06:50:24;29.17;;;9.68;;
9789;SDS011;4934;50.852;8.098;2022-12-07T06:52:50;28.17;;;10.77;;
9789;SDS011;4934;50.852;8.098;2022-12-07T06:55:16;25.85;;;10.23;;
9789;SDS011;4934;50.852;8.098;2022-12-07T06:57:42;29.20;;;10.98;;
9789;SDS011;4934;50.852;8.098;2022-12-07T07:00:08;31.17;;;11.73;;
9789;SDS011;4934;50.852;8.098;2022-12-07T07:02:34;31.25;;;10.98;;
9789;SDS011;4934;50.852;8.098;2022-12-07T07:04:59;33.58;;;13.10;;
9789;SDS011;4934;50.852;8.098;2022-12-07T07:07:25;31.02;;;12.70;;
9789;SDS011;4934;50.852;8.098;2022-12-07T07:09:50;40.60;;;14.40;;
9789;SDS011;4934;50.852;8.098;2022-12-07T07:12:16;35.05;;;14.48;;
9789;SDS011;4934;50.852;8.098;2022-12-07T07:14:42;39.10;;;13.77;;
9789;SDS011;4934;50.852;8.098;2022-12-07T07:17:08;39.03;;;14.55;;
9789;SDS011;4934;50.852;8.098;2022-12-07T07:19:34;33.72;;;13.18;;
9789;SDS011;4934;50.852;8.098;2022-12-07T07:21:59;37.65;;;13.02;;
9789;SDS011;4934;50.852;8.098;2022-12-07T07:24:25;37.67;;;11.65;;
9789;SDS011;4934;50.852;8.098;2022-12-07T07:26:51;41.75;;;12.68;;
9789;SDS011;4934;50.852;8.098;2022-12-07T07:29:16;37.08;;;12.15;;
9789;SDS011;4934;50.852;8.098;2022-12-07T07:31:42;34.45;;;12.25;;
9789;SDS011;4934;50.852;8.098;2022-12-07T07:34:07;34.53;;;11.98;;
9789;SDS011;4934;50.852;8.098;2022-12-07T07:36:33;37.55;;;12.23;;
9789;SDS011;4934;50.852;8.098;2022-12-07T07:38:59;32.25;;;12.18;;
9789;SDS011;4934;50.852;8.098;2022-12-07T07:41:24;32.50;;;11.68;;
9789;SDS011;4934;50.852;8.098;2022-12-07T07:43:52;38.97;;;12.57;;
9789;SDS011;4934;50.852;8.098;2022-12-07T07:46:18;34.28;;;12.65;;
9789;SDS011;4934;50.852;8.098;2022-12-07T07:48:43;34.83;;;12.27;;
9789;SDS011;4934;50.852;8.098;2022-12-07T07:51:09;28.27;;;11.02;;
9789;SDS011;4934;50.852;8.098;2022-12-07T07:53:35;33.90;;;13.10;;
9789;SDS011;4934;50.852;8.098;2022-12-07T07:56:01;40.10;;;13.55;;
9789;SDS011;4934;50.852;8.098;2022-12-07T07:58:26;36.83;;;13.68;;
9789;SDS011;4934;50.852;8.098;2022-12-07T08:01:04;31.30;;;12.50;;
9789;SDS011;4934;50.852;8.098;2022-12-07T08:03:33;36.47;;;12.90;;
9789;SDS011;4934;50.852;8.098;2022-12-07T08:05:58;30.50;;;11.52;;
9789;SDS011;4934;50.852;8.098;2022-12-07T08:08:25;35.53;;;12.43;;
9789;SDS011;4934;50.852;8.098;2022-12-07T08:10:51;37.78;;;13.68;;
9789;SDS011;4934;50.852;8.098;2022-12-07T08:13:17;36.00;;;13.57;;
9789;SDS011;4934;50.852;8.098;2022-12-07T08:15:43;37.72;;;13.50;;
9789;SDS011;4934;50.852;8.098;2022-12-07T08:18:10;34.03;;;12.50;;
9789;SDS011;4934;50.852;8.098;2022-12-07T08:20:37;32.08;;;11.57;;
9789;SDS011;4934;50.852;8.098;2022-12-07T08:23:04;31.85;;;11.32;;
9789;SDS011;4934;50.852;8.098;2022-12-07T08:25:31;27.98;;;11.20;;
9789;SDS011;4934;50.852;8.098;2022-12-07T08:27:57;33.28;;;10.93;;
9789;SDS011;4934;50.852;8.098;2022-12-07T08:30:23;28.73;;;11.48;;
9789;SDS011;4934;50.852;8.098;2022-12-07T08:32:49;26.48;;;10.82;;
9789;SDS011;4934;50.852;8.098;2022-12-07T08:35:15;40.30;;;12.38;;
9789;SDS011;4934;50.852;8.098;2022-12-07T08:37:42;32.70;;;11.45;;
9789;SDS011;4934;50.852;8.098;2022-12-07T08:40:09;27.90;;;10.63;;
9789;SDS011;4934;50.852;8.098;2022-12-07T08:42:35;29.33;;;11.13;;
9789;SDS011;4934;50.852;8.098;2022-12-07T08:45:12;22.17;;;9.05;;
9789;SDS011;4934;50.852;8.098;2022-12-07T08:47:50;23.67;;;9.13;;
9789;SDS011;4934;50.852;8.098;2022-12-07T08:50:20;29.40;;;10.93;;
9789;SDS011;4934;50.852;8.098;2022-12-07T08:52:56;28.63;;;9.35;;
9789;SDS011;4934;50.852;8.098;2022-12-07T08:55:24;25.27;;;9.35;;
9789;SDS011;4934;50.852;8.098;2022-12-07T08:57:50;22.88;;;8.60;;
9789;SDS011;4934;50.852;8.098;2022-12-07T09:00:16;29.65;;;10.80;;
9789;SDS011;4934;50.852;8.098;2022-12-07T09:02:43;26.40;;;9.18;;
9789;SDS011;4934;50.852;8.098;2022-12-07T09:05:09;24.75;;;8.82;;
9789;SDS011;4934;50.852;8.098;2022-12-07T09:07:35;24.77;;;10.52;;
9789;SDS011;4934;50.852;8.098;2022-12-07T09:10:02;30.42;;;9.90;;
9789;SDS011;4934;50.852;8.098;2022-12-07T09:12:28;20.85;;;9.00;;
9789;SDS011;4934;50.852;8.098;2022-12-07T09:14:54;22.65;;;8.50;;
9789;SDS011;4934;50.852;8.098;2022-12-07T09:17:19;22.25;;;9.05;;
9789;SDS011;4934;50.852;8.098;2022-12-07T09:19:45;26.05;;;10.65;;
9789;SDS011;4934;50.852;8.098;2022-12-07T09:22:11;20.60;;;9.50;;
9789;SDS011;4934;50.852;8.098;2022-12-07T09:24:37;22.77;;;8.25;;
9789;SDS011;4934;50.852;8.098;2022-12-07T09:27:03;29.02;;;10.07;;
9789;SDS011;4934;50.852;8.098;2022-12-07T09:29:29;31.83;;;10.80;;
9789;SDS011;4934;50.852;8.098;2022-12-07T09:31:54;19.60;;;9.10;;
9789;SDS011;4934;50.852;8.098;2022-12-07T09:34:20;20.98;;;9.07;;
9789;SDS011;4934;50.852;8.098;2022-12-07T09:36:46;16.70;;;7.80;;
9789;SDS011;4934;50.852;8.098;2022-12-07T09:39:12;22.33;;;8.77;;
9789;SDS011;4934;50.852;8.098;2022-12-07T09:41:41;19.85;;;7.95;;
9789;SDS011;4934;50.852;8.098;2022-12-07T10:07:25;20.73;;;8.98;;
9789;SDS011;4934;50.852;8.098;2022-12-07T10:12:17;14.45;;;6.40;;
9789;SDS011;4934;50.852;8.098;2022-12-07T10:14:54;22.42;;;9.77;;
9789;SDS011;4934;50.852;8.098;2022-12-07T10:17:38;18.58;;;7.88;;
9789;SDS011;4934;50.852;8.098;2022-12-07T10:20:20;28.48;;;11.45;;
9789;SDS011;4934;50.852;8.098;2022-12-07T10:25:24;10.77;;;5.35;;
9789;SDS011;4934;50.852;8.098;2022-12-07T10:33:52;14.50;;;4.95;;
9789;SDS011;4934;50.852;8.098;2022-12-07T10:39:31;14.63;;;5.43;;
9789;SDS011;4934;50.852;8.098;2022-12-07T10:44:25;17.08;;;6.13;;
9789;SDS011;4934;50.852;8.098;2022-12-07T10:53:05;13.80;;;6.38;;
9789;SDS011;4934;50.852;8.098;2022-12-07T11:03:36;13.00;;;6.20;;
9789;SDS011;4934;50.852;8.098;2022-12-07T11:17:54;21.40;;;7.90;;
9789;SDS011;4934;50.852;8.098;2022-12-07T11:23:16;22.08;;;7.60;;
9789;SDS011;4934;50.852;8.098;2022-12-07T11:36:44;23.77;;;7.85;;
9789;SDS011;4934;50.852;8.098;2022-12-07T11:39:36;17.85;;;7.35;;
9789;SDS011;4934;50.852;8.098;2022-12-07T11:42:24;23.60;;;9.82;;
9789;SDS011;4934;50.852;8.098;2022-12-07T11:53:25;14.77;;;7.45;;
9789;SDS011;4934;50.852;8.098;2022-12-07T11:56:00;14.63;;;6.90;;
9789;SDS011;4934;50.852;8.098;2022-12-07T12:01:20;14.98;;;5.28;;
9789;SDS011;4934;50.852;8.098;2022-12-07T12:03:58;14.32;;;5.45;;
9789;SDS011;4934;50.852;8.098;2022-12-07T12:06:31;13.52;;;4.88;;
9789;SDS011;4934;50.852;8.098;2022-12-07T12:09:13;22.30;;;7.43;;
9789;SDS011;4934;50.852;8.098;2022-12-07T12:19:45;10.20;;;4.22;;
9789;SDS011;4934;50.852;8.098;2022-12-07T12:22:27;15.32;;;4.88;;
9789;SDS011;4934;50.852;8.098;2022-12-07T12:25:00;16.20;;;5.57;;
9789;SDS011;4934;50.852;8.098;2022-12-07T12:27:32;13.77;;;5.15;;
9789;SDS011;4934;50.852;8.098;2022-12-07T12:30:29;14.20;;;4.55;;
9789;SDS011;4934;50.852;8.098;2022-12-07T12:33:01;9.48;;;4.20;;
9789;SDS011;4934;50.852;8.098;2022-12-07T12:35:36;11.25;;;5.30;;
9789;SDS011;4934;50.852;8.098;2022-12-07T12:41:03;16.63;;;5.47;;
9789;SDS011;4934;50.852;8.098;2022-12-07T12:51:46;14.98;;;4.13;;
9789;SDS011;4934;50.852;8.098;2022-12-07T12:54:24;12.25;;;4.65;;
9789;SDS011;4934;50.852;8.098;2022-12-07T12:56:58;7.97;;;2.95;;
9789;SDS011;4934;50.852;8.098;2022-12-07T12:59:56;15.73;;;4.85;;
9789;SDS011;4934;50.852;8.098;2022-12-07T13:02:37;8.30;;;4.18;;
9789;SDS011;4934;50.852;8.098;2022-12-07T13:05:25;18.33;;;7.18;;
9789;SDS011;4934;50.852;8.098;2022-12-07T13:08:21;23.83;;;7.93;;
9789;SDS011;4934;50.852;8.098;2022-12-07T13:10:55;16.52;;;6.35;;
9789;SDS011;4934;50.852;8.098;2022-12-07T13:17:00;17.85;;;5.40;;
9789;SDS011;4934;50.852;8.098;2022-12-07T13:22:38;19.73;;;6.53;;
9789;SDS011;4934;50.852;8.098;2022-12-07T13:28:42;31.92;;;9.80;;
9789;SDS011;4934;50.852;8.098;2022-12-07T13:34:48;11.18;;;5.95;;
9789;SDS011;4934;50.852;8.098;2022-12-07T13:37:14;21.75;;;8.93;;
9789;SDS011;4934;50.852;8.098;2022-12-07T13:39:45;12.38;;;7.57;;
9789;SDS011;4934;50.852;8.098;2022-12-07T13:45:31;11.45;;;5.00;;
9789;SDS011;4934;50.852;8.098;2022-12-07T13:48:14;10.45;;;4.60;;
9789;SDS011;4934;50.852;8.098;2022-12-07T13:50:40;15.43;;;5.40;;
9789;SDS011;4934;50.852;8.098;2022-12-07T13:53:07;13.75;;;5.25;;
9789;SDS011;4934;50.852;8.098;2022-12-07T13:55:43;12.82;;;5.10;;
9789;SDS011;4934;50.852;8.098;2022-12-07T13:58:10;12.70;;;5.30;;
9789;SDS011;4934;50.852;8.098;2022-12-07T14:00:36;12.95;;;5.20;;
9789;SDS011;4934;50.852;8.098;2022-12-07T14:05:37;18.40;;;5.30;;
9789;SDS011;4934;50.852;8.098;2022-12-07T14:10:40;13.10;;;5.20;;
9789;SDS011;4934;50.852;8.098;2022-12-07T14:13:34;11.98;;;5.85;;
9789;SDS011;4934;50.852;8.098;2022-12-07T14:16:03;8.45;;;3.00;;
9789;SDS011;4934;50.852;8.098;2022-12-07T14:18:47;8.10;;;3.22;;
9789;SDS011;4934;50.852;8.098;2022-12-07T14:23:38;12.90;;;4.35;;
9789;SDS011;4934;50.852;8.098;2022-12-07T14:31:42;14.73;;;4.30;;
9789;SDS011;4934;50.852;8.098;2022-12-07T14:39:50;12.82;;;5.10;;
9789;SDS011;4934;50.852;8.098;2022-12-07T14:42:30;12.35;;;4.72;;
9789;SDS011;4934;50.852;8.098;2022-12-07T14:44:57;28.95;;;10.13;;
9789;SDS011;4934;50.852;8.098;2022-12-07T14:47:24;12.07;;;6.25;;
9789;SDS011;4934;50.852;8.098;2022-12-07T14:49:51;12.57;;;5.45;;
9789;SDS011;4934;50.852;8.098;2022-12-07T14:52:17;15.48;;;6.15;;
9789;SDS011;4934;50.852;8.098;2022-12-07T14:54:46;14.35;;;6.15;;
9789;SDS011;4934;50.852;8.098;2022-12-07T14:57:14;16.20;;;6.78;;
9789;SDS011;4934;50.852;8.098;2022-12-07T14:59:39;15.73;;;5.50;;
9789;SDS011;4934;50.852;8.098;2022-12-07T15:02:05;12.90;;;5.95;;
9789;SDS011;4934;50.852;8.098;2022-12-07T15:04:31;13.60;;;5.13;;
9789;SDS011;4934;50.852;8.098;2022-12-07T15:06:58;17.80;;;5.47;;
9789;SDS011;4934;50.852;8.098;2022-12-07T15:09:25;15.77;;;6.50;;
9789;SDS011;4934;50.852;8.098;2022-12-07T15:11:51;15.18;;;6.65;;
9789;SDS011;4934;50.852;8.098;2022-12-07T15:14:17;26.35;;;9.35;;
9789;SDS011;4934;50.852;8.098;2022-12-07T15:16:43;15.25;;;7.50;;
9789;SDS011;4934;50.852;8.098;2022-12-07T15:19:13;22.00;;;6.97;;
9789;SDS011;4934;50.852;8.098;2022-12-07T15:21:41;19.63;;;6.60;;
9789;SDS011;4934;50.852;8.098;2022-12-07T15:24:08;12.48;;;6.43;;
9789;SDS011;4934;50.852;8.098;2022-12-07T15:26:35;15.15;;;6.10;;
9789;SDS011;4934;50.852;8.098;2022-12-07T15:29:01;19.08;;;6.97;;
9789;SDS011;4934;50.852;8.098;2022-12-07T15:31:27;23.88;;;6.82;;
9789;SDS011;4934;50.852;8.098;2022-12-07T15:33:53;13.98;;;7.07;;
9789;SDS011;4934;50.852;8.098;2022-12-07T15:36:26;15.38;;;7.85;;
9789;SDS011;4934;50.852;8.098;2022-12-07T15:38:53;16.35;;;7.07;;
9789;SDS011;4934;50.852;8.098;2022-12-07T15:41:19;19.60;;;7.55;;
9789;SDS011;4934;50.852;8.098;2022-12-07T15:43:54;20.25;;;7.53;;
9789;SDS011;4934;50.852;8.098;2022-12-07T15:46:48;17.98;;;8.85;;
9789;SDS011;4934;50.852;8.098;2022-12-07T15:49:18;22.48;;;7.65;;
9789;SDS011;4934;50.852;8.098;2022-12-07T15:51:44;18.27;;;8.50;;
9789;SDS011;4934;50.852;8.098;2022-12-07T15:54:31;18.70;;;8.48;;
9789;SDS011;4934;50.852;8.098;2022-12-07T15:56:57;18.65;;;8.57;;
9789;SDS011;4934;50.852;8.098;2022-12-07T15:59:23;15.93;;;7.30;;
9789;SDS011;4934;50.852;8.098;2022-12-07T16:01:49;97.32;;;27.05;;
9789;SDS011;4934;50.852;8.098;2022-12-07T16:04:14;32.72;;;11.45;;
9789;SDS011;4934;50.852;8.098;2022-12-07T16:06:40;19.85;;;7.43;;
9789;SDS011;4934;50.852;8.098;2022-12-07T16:09:06;29.80;;;10.00;;
9789;SDS011;4934;50.852;8.098;2022-12-07T16:11:32;25.35;;;10.88;;
9789;SDS011;4934;50.852;8.098;2022-12-07T16:13:58;22.55;;;9.00;;
9789;SDS011;4934;50.852;8.098;2022-12-07T16:16:30;35.90;;;11.40;;
9789;SDS011;4934;50.852;8.098;2022-12-07T16:19:05;21.95;;;8.27;;
9789;SDS011;4934;50.852;8.098;2022-12-07T16:21:32;24.05;;;9.75;;
9789;SDS011;4934;50.852;8.098;2022-12-07T16:23:59;79.57;;;18.02;;
9789;SDS011;4934;50.852;8.098;2022-12-07T16:26:27;19.23;;;8.80;;
9789;SDS011;4934;50.852;8.098;2022-12-07T16:28:52;18.02;;;9.18;;
9789;SDS011;4934;50.852;8.098;2022-12-07T16:31:22;25.85;;;10.25;;
9789;SDS011;4934;50.852;8.098;2022-12-07T16:33:52;17.67;;;7.38;;
9789;SDS011;4934;50.852;8.098;2022-12-07T16:38:47;45.97;;;14.15;;
9789;SDS011;4934;50.852;8.098;2022-12-07T16:41:13;28.67;;;10.30;;
9789;SDS011;4934;50.852;8.098;2022-12-07T16:43:39;37.72;;;13.70;;
9789;SDS011;4934;50.852;8.098;2022-12-07T16:46:05;45.33;;;15.50;;
9789;SDS011;4934;50.852;8.098;2022-12-07T16:48:31;25.20;;;10.75;;
9789;SDS011;4934;50.852;8.098;2022-12-07T16:51:05;23.42;;;10.93;;
9789;SDS011;4934;50.852;8.098;2022-12-07T16:53:35;24.92;;;10.80;;
9789;SDS011;4934;50.852;8.098;2022-12-07T16:56:02;19.33;;;9.32;;
9789;SDS011;4934;50.852;8.098;2022-12-07T16:58:28;22.08;;;9.65;;
9789;SDS011;4934;50.852;8.098;2022-12-07T17:01:08;16.70;;;8.25;;
9789;SDS011;4934;50.852;8.098;2022-12-07T17:03:45;21.90;;;10.60;;
9789;SDS011;4934;50.852;8.098;2022-12-07T17:06:15;17.98;;;9.80;;
9789;SDS011;4934;50.852;8.098;2022-12-07T17:08:43;25.20;;;9.75;;
9789;SDS011;4934;50.852;8.098;2022-12-07T17:11:19;25.70;;;11.32;;
9789;SDS011;4934;50.852;8.098;2022-12-07T17:13:50;26.75;;;11.13;;
9789;SDS011;4934;50.852;8.098;2022-12-07T17:16:40;28.58;;;11.55;;
9789;SDS011;4934;50.852;8.098;2022-12-07T17:19:08;42.97;;;18.85;;
9789;SDS011;4934;50.852;8.098;2022-12-07T17:24:16;28.65;;;12.05;;
9789;SDS011;4934;50.852;8.098;2022-12-07T17:26:43;26.92;;;11.95;;
9789;SDS011;4934;50.852;8.098;2022-12-07T17:29:11;30.37;;;12.03;;
9789;SDS011;4934;50.852;8.098;2022-12-07T17:31:38;32.42;;;14.38;;
9789;SDS011;4934;50.852;8.098;2022-12-07T17:37:01;26.90;;;12.30;;
9789;SDS011;4934;50.852;8.098;2022-12-07T17:39:27;27.27;;;11.05;;
9789;SDS011;4934;50.852;8.098;2022-12-07T17:45:00;27.50;;;12.63;;
9789;SDS011;4934;50.852;8.098;2022-12-07T17:47:27;29.88;;;12.00;;
9789;SDS011;4934;50.852;8.098;2022-12-07T17:49:52;28.80;;;12.05;;
9789;SDS011;4934;50.852;8.098;2022-12-07T17:52:18;26.85;;;11.90;;
9789;SDS011;4934;50.852;8.098;2022-12-07T17:55:02;25.42;;;12.30;;
9789;SDS011;4934;50.852;8.098;2022-12-07T17:57:28;29.67;;;12.10;;
9789;SDS011;4934;50.852;8.098;2022-12-07T17:59:54;31.00;;;13.05;;
9789;SDS011;4934;50.852;8.098;2022-12-07T18:02:20;29.40;;;13.10;;
9789;SDS011;4934;50.852;8.098;2022-12-07T18:04:45;31.42;;;14.15;;
9789;SDS011;4934;50.852;8.098;2022-12-07T18:10:40;34.65;;;16.35;;
9789;SDS011;4934;50.852;8.098;2022-12-07T18:13:05;31.33;;;13.80;;